createdAt,value
2019-03-21T00:02:38.675Z,101526.47
2019-03-21T00:05:44.392Z,101523.43
2019-03-21T00:08:50.123Z,101524.66
2019-03-21T00:12:03.600Z,101524.75
2019-03-21T00:15:20.905Z,101525.77
2019-03-21T00:18:26.632Z,101519.83
2019-03-21T00:21:32.355Z,101526.31
2019-03-21T00:24:38.067Z,101520.47
2019-03-21T00:27:43.790Z,101529.12
2019-03-21T00:30:49.479Z,101520.84
2019-03-21T00:33:55.216Z,101526.20
2019-03-21T00:37:00.943Z,101532.45
2019-03-21T00:40:08.794Z,101532.19
2019-03-21T00:43:14.496Z,101538.81
2019-03-21T00:46:20.167Z,101534.05
2019-03-21T00:49:27.099Z,101538.30
2019-03-21T00:52:32.851Z,101530.02
2019-03-21T00:55:39.143Z,101529.59
2019-03-21T00:58:44.776Z,101532.91
2019-03-21T01:01:50.506Z,101539.16
2019-03-21T01:04:56.229Z,101533.42
2019-03-21T01:08:02.891Z,101536.86
2019-03-21T01:11:08.567Z,101532.04
2019-03-21T01:14:14.268Z,101537.28
2019-03-21T01:17:19.963Z,101524.89
2019-03-21T01:20:25.735Z,101525.35
2019-03-21T01:23:31.460Z,101522.73
2019-03-21T01:26:37.239Z,101525.33
2019-03-21T01:29:42.987Z,101528.81
2019-03-21T01:32:48.639Z,101525.27
2019-03-21T01:35:54.386Z,101525.69
2019-03-21T01:39:00.085Z,101519.66
2019-03-21T01:42:06.261Z,101518.13
2019-03-21T01:45:13.857Z,101517.98
2019-03-21T01:48:19.500Z,101509.15
2019-03-21T01:51:25.194Z,101513.80
2019-03-21T01:54:30.892Z,101514.79
2019-03-21T01:57:36.590Z,101517.83
2019-03-21T02:00:42.295Z,101521.05
2019-03-21T02:03:48.126Z,101512.33
2019-03-21T02:06:53.786Z,101507.05
2019-03-21T02:09:59.700Z,101503.20
2019-03-21T02:13:05.421Z,101511.11
2019-03-21T02:16:11.089Z,101503.41
2019-03-21T02:19:16.831Z,101503.48
2019-03-21T02:22:22.476Z,101507.41
2019-03-21T02:25:29.294Z,101514.91
2019-03-21T02:28:35.177Z,101510.12
2019-03-21T02:31:41.066Z,101510.95
2019-03-21T02:34:46.795Z,101516.17
2019-03-21T02:37:52.459Z,101507.33
2019-03-21T02:40:59.290Z,101510.88
2019-03-21T02:44:05.022Z,101514.13
2019-03-21T02:47:10.650Z,101511.77
2019-03-21T02:50:19.762Z,101507.60
2019-03-21T02:53:25.444Z,101507.92
2019-03-21T02:56:31.165Z,101507.24
2019-03-21T02:59:36.903Z,101509.53
2019-03-21T03:02:42.618Z,101505.28
2019-03-21T03:05:48.341Z,101504.63
2019-03-21T03:08:54.059Z,101507.48
2019-03-21T03:11:59.856Z,101510.41
2019-03-21T03:15:06.509Z,101502.99
2019-03-21T03:18:12.265Z,101500.27
2019-03-21T03:21:17.945Z,101498.17
2019-03-21T03:24:25.565Z,101507.72
2019-03-21T03:27:31.284Z,101505.56
2019-03-21T03:30:36.990Z,101508.41
2019-03-21T03:33:42.661Z,101516.66
2019-03-21T03:36:48.386Z,101513.25
2019-03-21T03:39:54.078Z,101511.20
2019-03-21T03:42:59.730Z,101507.23
2019-03-21T03:46:05.494Z,101518.34
2019-03-21T03:49:11.169Z,101525.93
2019-03-21T03:52:16.890Z,101522.28
2019-03-21T03:55:22.561Z,101524.20
2019-03-21T03:58:28.241Z,101523.52
2019-03-21T04:01:33.914Z,101518.95
2019-03-21T04:04:39.667Z,101526.45
2019-03-21T04:07:45.397Z,101529.29
2019-03-21T04:10:52.039Z,101524.11
2019-03-21T04:13:57.723Z,101528.53
2019-03-21T04:17:03.416Z,101531.11
2019-03-21T04:20:11.043Z,101531.11
2019-03-21T04:23:17.633Z,101524.67
2019-03-21T04:26:26.691Z,101527.69
2019-03-21T04:29:32.381Z,101519.03
2019-03-21T04:32:38.023Z,101526.48
2019-03-21T04:35:43.733Z,101536.66
2019-03-21T04:38:49.360Z,101532.77
2019-03-21T04:41:55.077Z,101527.88
2019-03-21T04:45:00.794Z,101531.75
2019-03-21T04:48:06.460Z,101534.01
2019-03-21T04:51:12.153Z,101537.51
2019-03-21T04:54:17.769Z,101527.59
2019-03-21T04:57:23.487Z,101532.59
2019-03-21T05:00:31.562Z,101534.39
2019-03-21T05:03:38.228Z,101541.01
2019-03-21T05:06:43.892Z,101536.02
2019-03-21T05:09:49.649Z,101535.63
2019-03-21T05:12:55.343Z,101532.61
2019-03-21T05:16:00.992Z,101534.87
2019-03-21T05:19:06.692Z,101534.20
2019-03-21T05:22:12.371Z,101539.12
2019-03-21T05:25:18.171Z,101541.01
2019-03-21T05:28:24.828Z,101537.12
2019-03-21T05:31:32.551Z,101537.88
2019-03-21T05:34:38.244Z,101544.41
2019-03-21T05:37:43.994Z,101544.58
2019-03-21T05:40:49.642Z,101539.58
2019-03-21T05:44:05.801Z,101538.09
2019-03-21T05:47:11.446Z,101547.73
2019-03-21T05:50:17.493Z,101541.68
2019-03-21T05:53:23.270Z,101547.22
2019-03-21T05:56:29.223Z,101540.28
2019-03-21T05:59:34.897Z,101546.84
2019-03-21T06:02:40.518Z,101545.03
2019-03-21T06:05:49.455Z,101541.25
2019-03-21T06:12:17.733Z,101549.58
2019-03-21T06:15:28.782Z,101557.86
2019-03-21T06:19:06.499Z,101549.02
2019-03-21T06:22:37.281Z,101539.95
2019-03-21T06:26:13.235Z,101547.25
2019-03-21T06:29:18.902Z,101543.33
2019-03-21T06:32:24.880Z,101544.53
2019-03-21T06:35:31.628Z,101551.81
2019-03-21T06:38:37.328Z,101546.75
2019-03-21T06:41:43.039Z,101551.34
2019-03-21T06:44:48.782Z,101550.34
2019-03-21T06:47:54.485Z,101558.06
2019-03-21T06:51:00.159Z,101565.34
2019-03-21T06:54:05.989Z,101557.61
2019-03-21T06:57:11.736Z,101566.14
2019-03-21T07:00:17.523Z,101565.60
2019-03-21T07:03:23.219Z,101561.51
2019-03-21T07:06:28.925Z,101559.73
2019-03-21T07:09:34.594Z,101556.25
2019-03-21T07:12:40.307Z,101559.30
2019-03-21T07:15:46.032Z,101555.05
2019-03-21T07:18:51.743Z,101555.27
2019-03-21T07:21:57.611Z,101557.55
2019-03-21T07:25:03.395Z,101551.87
2019-03-21T07:28:09.094Z,101550.32
2019-03-21T07:31:14.803Z,101552.66
2019-03-21T07:34:20.558Z,101564.86
2019-03-21T07:37:26.212Z,101566.02
2019-03-21T07:40:32.062Z,101561.95
2019-03-21T07:43:37.823Z,101569.83
2019-03-21T07:46:43.495Z,101563.77
2019-03-21T07:49:49.192Z,101561.55
2019-03-21T07:52:54.945Z,101557.27
2019-03-21T07:56:00.626Z,101550.33
2019-03-21T07:59:07.274Z,101547.62
2019-03-21T08:02:13.032Z,101545.41
2019-03-21T08:05:18.669Z,101542.89
2019-03-21T08:08:24.407Z,101544.58
2019-03-21T08:11:30.166Z,101536.38
2019-03-21T08:14:35.834Z,101531.73
2019-03-21T08:17:41.670Z,101529.68
2019-03-21T08:20:56.242Z,101530.66
2019-03-21T08:23:54.710Z,101526.08
2019-03-21T08:27:01.423Z,101534.25
2019-03-21T08:30:10.854Z,101521.09
2019-03-21T08:33:16.529Z,101522.80
2019-03-21T08:36:22.189Z,101526.70
2019-03-21T08:39:27.913Z,101522.92
2019-03-21T08:42:33.602Z,101524.84
2019-03-21T08:45:39.381Z,101522.22
2019-03-21T08:48:45.139Z,101526.04
2019-03-21T08:51:50.819Z,101524.75
2019-03-21T08:54:56.616Z,101523.84
2019-03-21T08:58:02.228Z,101521.15
2019-03-21T09:01:07.967Z,101521.58
2019-03-21T09:04:13.686Z,101520.99
2019-03-21T09:07:19.405Z,101510.44
2019-03-21T09:10:25.076Z,101509.09
2019-03-21T09:13:30.782Z,101515.08
2019-03-21T09:16:36.486Z,101506.12
2019-03-21T09:19:42.131Z,101512.05
2019-03-21T09:22:47.832Z,101501.14
2019-03-21T09:25:53.466Z,101501.45
2019-03-21T09:28:59.175Z,101496.02
2019-03-21T09:32:04.989Z,101499.01
2019-03-21T09:35:12.429Z,101498.72
2019-03-21T09:38:18.269Z,101491.94
2019-03-21T09:41:23.970Z,101493.76
2019-03-21T09:44:30.176Z,101494.51
2019-03-21T09:47:35.999Z,101495.33
2019-03-21T09:50:41.714Z,101497.76
2019-03-21T09:53:47.422Z,101491.27
2019-03-21T09:56:53.103Z,101486.27
2019-03-21T09:59:58.835Z,101493.52
2019-03-21T10:03:04.876Z,101476.89
2019-03-21T10:06:10.588Z,101485.86
2019-03-21T10:09:16.273Z,101476.70
2019-03-21T10:12:21.966Z,101482.11
2019-03-21T10:15:27.650Z,101478.94
2019-03-21T10:18:33.279Z,101479.03
2019-03-21T10:21:43.472Z,101472.93
2019-03-21T10:24:46.342Z,101480.85
2019-03-21T10:27:52.048Z,101470.44
2019-03-21T10:30:57.719Z,101469.44
2019-03-21T10:34:03.333Z,101467.46
2019-03-21T10:37:09.029Z,101466.42
2019-03-21T10:40:14.753Z,101469.25
2019-03-21T10:43:20.601Z,101469.03
2019-03-21T10:46:26.379Z,101464.84
2019-03-21T10:49:32.166Z,101468.64
2019-03-21T10:52:37.969Z,101458.59
2019-03-21T10:55:43.662Z,101453.64
2019-03-21T10:58:49.405Z,101456.97
2019-03-21T11:02:06.680Z,101457.06
2019-03-21T11:05:05.209Z,101453.07
2019-03-21T11:08:10.970Z,101452.21
2019-03-21T11:11:16.685Z,101450.86
2019-03-21T11:14:22.371Z,101438.11
2019-03-21T11:17:28.150Z,101442.30
2019-03-21T11:20:35.441Z,101436.44
2019-03-21T11:23:41.101Z,101430.73
2019-03-21T11:26:46.834Z,101418.75
2019-03-21T11:29:52.545Z,101421.23
2019-03-21T11:32:58.305Z,101416.13
2019-03-21T11:36:04.139Z,101406.50
2019-03-21T11:39:09.833Z,101407.94
2019-03-21T11:42:15.617Z,101404.33
2019-03-21T11:45:21.452Z,101399.45
2019-03-21T11:48:27.167Z,101390.98
2019-03-21T11:51:33.863Z,101388.80
2019-03-21T11:54:39.568Z,101385.92
2019-03-21T11:57:45.309Z,101383.08
2019-03-21T12:00:50.969Z,101377.03
2019-03-21T12:03:56.759Z,101379.42
2019-03-21T12:07:02.464Z,101375.68
2019-03-21T12:10:08.446Z,101370.31
2019-03-21T12:13:14.098Z,101360.16
2019-03-21T12:16:19.817Z,101357.51
2019-03-21T12:19:25.653Z,101353.98
2019-03-21T12:22:31.347Z,101346.01
2019-03-21T12:25:37.068Z,101345.36
2019-03-21T12:28:42.732Z,101341.18
2019-03-21T12:31:48.490Z,101323.11
2019-03-21T12:34:54.226Z,101327.49
2019-03-21T12:37:59.909Z,101315.34
2019-03-21T12:41:06.610Z,101311.35
2019-03-21T12:44:12.294Z,101317.34
2019-03-21T12:47:17.982Z,101314.86
2019-03-21T12:50:23.771Z,101302.81
2019-03-21T12:53:29.578Z,101307.10
2019-03-21T12:56:35.280Z,101305.00
2019-03-21T12:59:40.975Z,101296.66
2019-03-21T13:02:46.646Z,101292.38
2019-03-21T13:05:52.295Z,101291.23
2019-03-21T13:08:58.019Z,101279.25
2019-03-21T13:12:03.725Z,101265.23
2019-03-21T13:15:10.556Z,101268.38
2019-03-21T13:18:16.205Z,101267.55
2019-03-21T13:21:21.860Z,101259.74
2019-03-21T13:24:27.670Z,101259.17
2019-03-21T13:27:33.325Z,101259.12
2019-03-21T13:30:39.016Z,101255.67
2019-03-21T13:33:44.691Z,101253.59
2019-03-21T13:36:50.398Z,101246.68
2019-03-21T13:39:56.058Z,101242.84
2019-03-21T13:43:01.850Z,101241.67
2019-03-21T13:46:07.721Z,101237.84
2019-03-21T13:49:13.408Z,101229.13
2019-03-21T13:52:19.050Z,101226.73
2019-03-21T13:55:24.715Z,101220.20
2019-03-21T13:58:30.427Z,101213.42
2019-03-21T14:01:36.198Z,101206.52
2019-03-21T14:04:41.865Z,101205.41
2019-03-21T14:07:47.581Z,101199.70
2019-03-21T14:10:53.275Z,101198.35
2019-03-21T14:13:59.019Z,101192.16
2019-03-21T14:17:04.674Z,101191.36
2019-03-21T14:20:11.220Z,101188.28
2019-03-21T14:23:17.656Z,101181.44
2019-03-21T14:26:23.361Z,101174.97
2019-03-21T14:29:28.990Z,101174.09
2019-03-21T14:32:34.706Z,101166.47
2019-03-21T14:35:40.335Z,101167.59
2019-03-21T14:38:45.996Z,101165.67
2019-03-21T14:41:51.823Z,101162.68
2019-03-21T14:44:57.513Z,101150.95
2019-03-21T14:48:03.177Z,101153.62
2019-03-21T14:51:10.513Z,101152.09
2019-03-21T14:54:16.155Z,101151.55
2019-03-21T14:57:21.897Z,101153.71
2019-03-21T15:00:27.789Z,101149.09
2019-03-21T15:03:33.651Z,101148.16
2019-03-21T15:06:39.356Z,101144.39
2019-03-21T15:09:45.016Z,101148.75
2019-03-21T15:12:50.674Z,101146.63
2019-03-21T15:15:56.353Z,101142.36
2019-03-21T15:19:02.121Z,101143.91
2019-03-21T15:22:07.794Z,101138.03
2019-03-21T15:25:13.643Z,101133.89
2019-03-21T15:28:19.332Z,101129.66
2019-03-21T15:31:25.074Z,101129.75
2019-03-21T15:34:30.769Z,101129.16
2019-03-21T15:37:36.430Z,101128.34
2019-03-21T15:40:42.143Z,101134.02
2019-03-21T15:43:47.850Z,101126.89
2019-03-21T15:46:53.545Z,101128.72
2019-03-21T15:49:59.339Z,101119.47
2019-03-21T15:53:05.422Z,101121.05
2019-03-21T15:56:11.149Z,101125.67
2019-03-21T15:59:17.644Z,101118.73
2019-03-21T16:02:23.392Z,101121.48
2019-03-21T16:05:29.069Z,101117.33
2019-03-21T16:08:34.833Z,101125.55
2019-03-21T16:15:51.281Z,101118.59
2019-03-21T16:18:57.070Z,101112.34
2019-03-21T16:22:02.750Z,101107.94
2019-03-21T16:25:09.725Z,101103.11
2019-03-21T16:28:15.489Z,101112.36
2019-03-21T16:31:22.864Z,101110.20
2019-03-21T16:34:28.761Z,101103.98
2019-03-21T16:37:35.516Z,101108.55
2019-03-21T16:40:41.263Z,101108.96
2019-03-21T16:43:47.061Z,101110.07
2019-03-21T16:46:53.109Z,101110.55
2019-03-21T16:49:58.791Z,101109.93
2019-03-21T16:53:04.844Z,101111.48
2019-03-21T16:56:10.640Z,101106.45
2019-03-21T16:59:16.435Z,101108.91
2019-03-21T17:17:53.983Z,101117.95
2019-03-21T17:25:02.388Z,101123.75
2019-03-21T17:28:08.674Z,101120.98
2019-03-21T17:31:23.440Z,101129.11
2019-03-21T17:34:33.417Z,101127.59
2019-03-21T17:44:40.117Z,101126.73
2019-03-21T17:47:45.949Z,101131.23
2019-03-21T17:50:53.098Z,101135.11
2019-03-21T17:53:59.919Z,101140.98
2019-03-21T17:57:05.975Z,101145.50
2019-03-21T18:00:14.135Z,101146.31
2019-03-21T18:03:19.826Z,101145.28
2019-03-21T18:06:25.663Z,101150.19
2019-03-21T18:09:35.643Z,101149.94
2019-03-21T18:12:41.592Z,101141.21
2019-03-21T18:15:47.586Z,101146.60
2019-03-21T18:18:53.325Z,101140.90
2019-03-21T18:21:59.069Z,101150.47
2019-03-21T18:25:04.898Z,101152.30
2019-03-21T18:28:10.668Z,101156.33
2019-03-21T18:31:16.451Z,101159.72
2019-03-21T18:34:22.175Z,101165.22
2019-03-21T18:37:27.877Z,101156.65
2019-03-21T18:40:33.703Z,101161.69
2019-03-21T18:43:39.470Z,101168.67
2019-03-21T18:46:45.216Z,101175.63
2019-03-21T18:49:50.917Z,101180.04
2019-03-21T18:52:56.732Z,101178.05
2019-03-21T18:56:02.436Z,101178.95
2019-03-21T18:59:08.082Z,101178.05
2019-03-21T19:02:13.808Z,101176.81
2019-03-21T19:05:19.555Z,101180.69
2019-03-21T19:08:25.241Z,101178.42
2019-03-21T19:11:33.759Z,101184.89
2019-03-21T19:14:39.493Z,101181.09
2019-03-21T19:17:45.319Z,101182.09
2019-03-21T19:20:51.015Z,101182.75
2019-03-21T19:23:57.049Z,101188.60
2019-03-21T19:27:02.857Z,101187.25
2019-03-21T19:30:09.429Z,101184.07
2019-03-21T19:33:15.185Z,101190.00
2019-03-21T19:36:20.885Z,101191.54
2019-03-21T19:39:26.670Z,101192.30
2019-03-21T19:42:32.404Z,101195.22
2019-03-21T19:45:38.216Z,101199.23
2019-03-21T19:48:50.241Z,101203.11
2019-03-21T19:51:51.274Z,101202.84
2019-03-21T19:54:56.966Z,101201.11
2019-03-21T19:58:02.750Z,101201.38
2019-03-21T20:01:08.670Z,101209.48
2019-03-21T20:04:14.534Z,101203.31
2019-03-21T20:07:20.264Z,101206.06
2019-03-21T20:10:26.122Z,101206.06
2019-03-21T20:13:31.920Z,101209.69
2019-03-21T20:16:37.626Z,101207.23
2019-03-21T20:19:43.433Z,101212.90
2019-03-21T20:22:49.341Z,101213.91
2019-03-21T20:25:55.272Z,101214.98
2019-03-21T20:29:01.038Z,101207.95
2019-03-21T20:32:06.874Z,101212.66
2019-03-21T20:35:12.585Z,101224.51
2019-03-21T20:38:18.518Z,101223.20
2019-03-21T20:41:24.416Z,101215.88
2019-03-21T20:44:30.252Z,101223.94
2019-03-21T20:47:35.967Z,101217.94
2019-03-21T20:50:41.696Z,101218.62
2019-03-21T20:53:47.425Z,101222.52
2019-03-21T20:56:53.189Z,101222.41
2019-03-21T20:59:59.182Z,101224.96
2019-03-21T21:03:04.929Z,101222.25
2019-03-21T21:06:12.017Z,101219.77
2019-03-21T21:09:17.809Z,101214.42
2019-03-21T21:12:23.720Z,101214.22
2019-03-21T21:15:29.541Z,101211.72
2019-03-21T21:18:35.254Z,101210.22
2019-03-21T21:21:41.005Z,101206.84
2019-03-21T21:24:46.742Z,101208.55
2019-03-21T21:27:52.489Z,101207.41
2019-03-21T21:30:58.260Z,101202.36
2019-03-21T21:34:04.170Z,101203.64
2019-03-21T21:37:09.992Z,101212.52
2019-03-21T21:40:16.788Z,101214.76
2019-03-21T21:43:25.229Z,101216.36
2019-03-21T21:46:31.052Z,101216.59
2019-03-21T21:49:36.730Z,101205.61
2019-03-21T21:52:42.638Z,101212.36
2019-03-21T21:55:48.407Z,101211.38
2019-03-21T21:58:54.161Z,101206.37
2019-03-21T22:01:59.947Z,101206.61
2019-03-21T22:05:06.016Z,101200.98
2019-03-21T22:08:11.802Z,101210.82
2019-03-21T22:11:17.711Z,101210.18
2019-03-21T22:14:23.544Z,101206.74
2019-03-21T22:17:29.291Z,101216.09
2019-03-21T22:20:35.123Z,101217.73
2019-03-21T22:23:40.784Z,101212.55
2019-03-21T22:26:46.489Z,101209.11
2019-03-21T22:29:52.308Z,101208.05
2019-03-21T22:32:58.168Z,101211.12
2019-03-21T22:36:06.466Z,101208.30
2019-03-21T22:39:11.274Z,101207.03
2019-03-21T22:42:16.988Z,101205.66
2019-03-21T22:45:22.769Z,101206.61
2019-03-21T22:48:28.535Z,101209.72
2019-03-21T22:51:34.222Z,101210.88
2019-03-21T22:54:39.897Z,101203.88
2019-03-21T22:57:45.693Z,101202.59
2019-03-21T23:00:53.790Z,101209.48
2019-03-21T23:03:59.655Z,101209.70
2019-03-21T23:07:05.326Z,101206.02
2019-03-21T23:10:12.428Z,101203.45
2019-03-21T23:13:18.026Z,101210.16
2019-03-21T23:16:23.632Z,101207.39
2019-03-21T23:19:30.415Z,101203.62
2019-03-21T23:22:36.105Z,101207.45
2019-03-21T23:25:41.738Z,101205.40
2019-03-21T23:28:47.434Z,101208.95
2019-03-21T23:31:53.132Z,101202.55
2019-03-21T23:34:58.739Z,101208.16
2019-03-21T23:38:04.452Z,101205.30
2019-03-21T23:41:10.101Z,101212.11
2019-03-21T23:44:16.103Z,101201.58
2019-03-21T23:47:22.015Z,101205.42
2019-03-21T23:50:27.627Z,101217.78
2019-03-21T23:53:33.257Z,101220.83
2019-03-21T23:56:38.948Z,101214.78
2019-03-21T23:59:44.640Z,101210.17
